REC weather

Guararapes - Gilberto Freyre International Airport
Recife, Pernambuco, Brazil

Public forecast

Using degrees Celsius for public forecast. Weather courtesy of forecast.io.

METAR (pilot weather report)

Retrieved 2019/05/21 03:35 UTC (23 minutes ago):

SBRF 210335Z 17004KT 080V240 4000 RA BKN007 BKN060 24/23 Q1013

TAF (pilot weather forecast)

Retrieved 2019/05/21 00:00 UTC (4 hours ago):

TAF SBRF 202200Z 2100/2124 11008KT 9999 FEW025 TN24/2107Z TX29/2115Z BECMG 2113/2115 16006KT SCT025 FEW030TCU RMK PEC